sensor_id;sensor_type;location;lat;lon;timestamp;temperature;humidity
56076;DHT22;41951;49.022;12.066;2023-04-03T00:00:08;4.50;99.90
56076;DHT22;41951;49.022;12.066;2023-04-03T00:02:34;4.50;99.90
56076;DHT22;41951;49.022;12.066;2023-04-03T00:04:59;4.50;99.90
56076;DHT22;41951;49.022;12.066;2023-04-03T00:07:25;4.50;99.90
56076;DHT22;41951;49.022;12.066;2023-04-03T00:09:50;4.60;99.90
56076;DHT22;41951;49.022;12.066;2023-04-03T00:12:16;4.50;99.90
56076;DHT22;41951;49.022;12.066;2023-04-03T00:14:42;4.50;99.90
56076;DHT22;41951;49.022;12.066;2023-04-03T00:17:07;4.50;99.90
56076;DHT22;41951;49.022;12.066;2023-04-03T00:19:33;4.40;99.90
56076;DHT22;41951;49.022;12.066;2023-04-03T00:21:58;4.40;99.90
56076;DHT22;41951;49.022;12.066;2023-04-03T00:24:24;4.50;99.90
56076;DHT22;41951;49.022;12.066;2023-04-03T00:26:50;4.50;99.90
56076;DHT22;41951;49.022;12.066;2023-04-03T00:29:16;4.50;99.90
56076;DHT22;41951;49.022;12.066;2023-04-03T00:31:41;4.50;99.90
56076;DHT22;41951;49.022;12.066;2023-04-03T00:34:07;4.50;99.90
56076;DHT22;41951;49.022;12.066;2023-04-03T00:36:33;4.50;99.90
56076;DHT22;41951;49.022;12.066;2023-04-03T00:38:58;4.50;99.90
56076;DHT22;41951;49.022;12.066;2023-04-03T00:41:24;4.50;99.90
56076;DHT22;41951;49.022;12.066;2023-04-03T00:43:50;4.50;99.90
56076;DHT22;41951;49.022;12.066;2023-04-03T00:46:16;4.40;99.90
56076;DHT22;41951;49.022;12.066;2023-04-03T00:48:46;4.40;99.90
56076;DHT22;41951;49.022;12.066;2023-04-03T00:51:25;4.50;99.90
56076;DHT22;41951;49.022;12.066;2023-04-03T00:54:03;4.50;99.90
56076;DHT22;41951;49.022;12.066;2023-04-03T00:56:30;4.40;99.90
56076;DHT22;41951;49.022;12.066;2023-04-03T00:59:02;4.40;99.90
56076;DHT22;41951;49.022;12.066;2023-04-03T01:01:29;4.50;99.90
56076;DHT22;41951;49.022;12.066;2023-04-03T01:03:55;4.40;99.90
56076;DHT22;41951;49.022;12.066;2023-04-03T01:06:30;4.40;99.90
56076;DHT22;41951;49.022;12.066;2023-04-03T01:08:59;4.40;99.90
56076;DHT22;41951;49.022;12.066;2023-04-03T01:11:25;4.40;99.90
56076;DHT22;41951;49.022;12.066;2023-04-03T01:13:52;4.40;99.90
56076;DHT22;41951;49.022;12.066;2023-04-03T01:16:18;4.40;99.90
56076;DHT22;41951;49.022;12.066;2023-04-03T01:18:44;4.40;99.90
56076;DHT22;41951;49.022;12.066;2023-04-03T01:26:21;4.40;99.90
56076;DHT22;41951;49.022;12.066;2023-04-03T01:28:47;4.30;99.90
56076;DHT22;41951;49.022;12.066;2023-04-03T01:31:26;4.30;99.90
56076;DHT22;41951;49.022;12.066;2023-04-03T01:33:52;4.30;99.90
56076;DHT22;41951;49.022;12.066;2023-04-03T01:36:21;4.30;99.90
56076;DHT22;41951;49.022;12.066;2023-04-03T01:38:48;4.30;99.90
56076;DHT22;41951;49.022;12.066;2023-04-03T01:41:14;4.30;99.90
56076;DHT22;41951;49.022;12.066;2023-04-03T01:43:40;4.30;99.90
56076;DHT22;41951;49.022;12.066;2023-04-03T01:46:06;4.20;99.90
56076;DHT22;41951;49.022;12.066;2023-04-03T01:48:33;4.30;99.90
56076;DHT22;41951;49.022;12.066;2023-04-03T01:50:59;4.20;99.90
56076;DHT22;41951;49.022;12.066;2023-04-03T01:53:24;4.20;99.90
56076;DHT22;41951;49.022;12.066;2023-04-03T01:55:50;4.20;99.90
56076;DHT22;41951;49.022;12.066;2023-04-03T01:58:16;4.30;99.90
56076;DHT22;41951;49.022;12.066;2023-04-03T02:00:42;4.20;99.90
56076;DHT22;41951;49.022;12.066;2023-04-03T02:03:07;4.20;99.90
56076;DHT22;41951;49.022;12.066;2023-04-03T02:05:33;4.20;99.90
56076;DHT22;41951;49.022;12.066;2023-04-03T02:07:59;4.20;99.90
56076;DHT22;41951;49.022;12.066;2023-04-03T02:10:25;4.20;99.90
56076;DHT22;41951;49.022;12.066;2023-04-03T02:12:51;4.20;99.90
56076;DHT22;41951;49.022;12.066;2023-04-03T02:15:17;4.10;99.90
56076;DHT22;41951;49.022;12.066;2023-04-03T02:17:43;4.10;99.90
56076;DHT22;41951;49.022;12.066;2023-04-03T02:20:09;4.10;99.90
56076;DHT22;41951;49.022;12.066;2023-04-03T02:22:35;4.10;99.90
56076;DHT22;41951;49.022;12.066;2023-04-03T02:25:01;4.10;99.90
56076;DHT22;41951;49.022;12.066;2023-04-03T02:27:27;4.00;99.90
56076;DHT22;41951;49.022;12.066;2023-04-03T02:29:52;4.00;99.90
56076;DHT22;41951;49.022;12.066;2023-04-03T02:32:18;4.00;99.90
56076;DHT22;41951;49.022;12.066;2023-04-03T02:34:43;4.10;99.90
56076;DHT22;41951;49.022;12.066;2023-04-03T02:37:09;4.00;99.90
56076;DHT22;41951;49.022;12.066;2023-04-03T02:39:35;4.00;99.90
56076;DHT22;41951;49.022;12.066;2023-04-03T02:42:00;4.00;99.90
56076;DHT22;41951;49.022;12.066;2023-04-03T02:44:26;4.00;99.90
56076;DHT22;41951;49.022;12.066;2023-04-03T02:46:52;4.00;99.90
56076;DHT22;41951;49.022;12.066;2023-04-03T02:49:17;4.00;99.90
56076;DHT22;41951;49.022;12.066;2023-04-03T02:51:43;4.00;99.90
56076;DHT22;41951;49.022;12.066;2023-04-03T02:54:09;4.00;99.90
56076;DHT22;41951;49.022;12.066;2023-04-03T02:56:35;4.00;99.90
56076;DHT22;41951;49.022;12.066;2023-04-03T02:59:01;4.00;99.90
56076;DHT22;41951;49.022;12.066;2023-04-03T03:01:26;4.00;99.90
56076;DHT22;41951;49.022;12.066;2023-04-03T03:03:57;4.00;99.90
56076;DHT22;41951;49.022;12.066;2023-04-03T03:06:22;4.00;99.90
56076;DHT22;41951;49.022;12.066;2023-04-03T03:08:48;3.90;99.90
56076;DHT22;41951;49.022;12.066;2023-04-03T03:11:13;4.00;99.90
56076;DHT22;41951;49.022;12.066;2023-04-03T03:13:39;3.90;99.90
56076;DHT22;41951;49.022;12.066;2023-04-03T03:16:05;3.90;99.90
56076;DHT22;41951;49.022;12.066;2023-04-03T03:18:31;4.20;99.90
56076;DHT22;41951;49.022;12.066;2023-04-03T03:20:58;3.90;99.90
56076;DHT22;41951;49.022;12.066;2023-04-03T03:23:26;3.90;99.90
56076;DHT22;41951;49.022;12.066;2023-04-03T03:25:59;3.90;99.90
56076;DHT22;41951;49.022;12.066;2023-04-03T03:28:25;3.90;99.90
56076;DHT22;41951;49.022;12.066;2023-04-03T03:30:51;3.90;99.90
56076;DHT22;41951;49.022;12.066;2023-04-03T03:33:17;3.90;99.90
56076;DHT22;41951;49.022;12.066;2023-04-03T03:35:44;3.90;99.90
56076;DHT22;41951;49.022;12.066;2023-04-03T03:38:10;3.90;99.90
56076;DHT22;41951;49.022;12.066;2023-04-03T03:40:36;3.90;99.90
56076;DHT22;41951;49.022;12.066;2023-04-03T03:43:01;3.90;99.90
56076;DHT22;41951;49.022;12.066;2023-04-03T03:45:27;3.90;99.90
56076;DHT22;41951;49.022;12.066;2023-04-03T03:47:53;3.90;99.90
56076;DHT22;41951;49.022;12.066;2023-04-03T03:50:18;3.90;99.90
56076;DHT22;41951;49.022;12.066;2023-04-03T03:52:44;3.90;99.90
56076;DHT22;41951;49.022;12.066;2023-04-03T03:55:10;3.80;99.90
56076;DHT22;41951;49.022;12.066;2023-04-03T03:57:36;3.90;99.90
56076;DHT22;41951;49.022;12.066;2023-04-03T04:00:02;3.80;99.90
56076;DHT22;41951;49.022;12.066;2023-04-03T04:02:28;3.80;99.90
56076;DHT22;41951;49.022;12.066;2023-04-03T04:04:54;3.70;99.90
56076;DHT22;41951;49.022;12.066;2023-04-03T04:07:20;3.70;99.90
56076;DHT22;41951;49.022;12.066;2023-04-03T04:09:45;3.80;99.90
56076;DHT22;41951;49.022;12.066;2023-04-03T04:12:11;3.70;99.90
56076;DHT22;41951;49.022;12.066;2023-04-03T04:14:37;3.70;99.90
56076;DHT22;41951;49.022;12.066;2023-04-03T04:17:02;3.60;99.90
56076;DHT22;41951;49.022;12.066;2023-04-03T04:19:28;3.60;99.90
56076;DHT22;41951;49.022;12.066;2023-04-03T04:21:54;3.60;99.90
56076;DHT22;41951;49.022;12.066;2023-04-03T04:24:20;3.60;99.90
56076;DHT22;41951;49.022;12.066;2023-04-03T04:26:45;3.60;99.90
56076;DHT22;41951;49.022;12.066;2023-04-03T04:29:11;3.60;99.90
56076;DHT22;41951;49.022;12.066;2023-04-03T04:31:36;3.60;99.90
56076;DHT22;41951;49.022;12.066;2023-04-03T04:34:02;3.60;99.90
56076;DHT22;41951;49.022;12.066;2023-04-03T04:36:28;3.60;99.90
56076;DHT22;41951;49.022;12.066;2023-04-03T04:38:53;3.60;99.90
56076;DHT22;41951;49.022;12.066;2023-04-03T04:41:20;3.60;99.90
56076;DHT22;41951;49.022;12.066;2023-04-03T04:43:48;3.60;99.90
56076;DHT22;41951;49.022;12.066;2023-04-03T04:46:13;3.60;99.90
56076;DHT22;41951;49.022;12.066;2023-04-03T04:48:39;3.50;99.90
56076;DHT22;41951;49.022;12.066;2023-04-03T04:51:06;3.50;99.90
56076;DHT22;41951;49.022;12.066;2023-04-03T04:53:31;3.60;99.90
56076;DHT22;41951;49.022;12.066;2023-04-03T04:55:57;3.50;99.90
56076;DHT22;41951;49.022;12.066;2023-04-03T04:58:22;3.60;99.90
56076;DHT22;41951;49.022;12.066;2023-04-03T05:00:48;3.50;99.90
56076;DHT22;41951;49.022;12.066;2023-04-03T05:03:14;3.60;99.90
56076;DHT22;41951;49.022;12.066;2023-04-03T05:05:39;3.60;99.90
56076;DHT22;41951;49.022;12.066;2023-04-03T05:08:05;3.60;99.90
56076;DHT22;41951;49.022;12.066;2023-04-03T05:10:31;3.50;99.90
56076;DHT22;41951;49.022;12.066;2023-04-03T05:12:57;3.50;99.90
56076;DHT22;41951;49.022;12.066;2023-04-03T05:15:23;3.50;99.90
56076;DHT22;41951;49.022;12.066;2023-04-03T05:17:49;3.50;99.90
56076;DHT22;41951;49.022;12.066;2023-04-03T05:20:15;3.50;99.90
56076;DHT22;41951;49.022;12.066;2023-04-03T05:22:41;3.50;99.90
56076;DHT22;41951;49.022;12.066;2023-04-03T05:25:07;3.50;99.90
56076;DHT22;41951;49.022;12.066;2023-04-03T05:27:32;3.50;99.90
56076;DHT22;41951;49.022;12.066;2023-04-03T05:29:58;3.60;99.90
56076;DHT22;41951;49.022;12.066;2023-04-03T05:32:25;3.50;99.90
56076;DHT22;41951;49.022;12.066;2023-04-03T05:34:52;3.50;99.90
56076;DHT22;41951;49.022;12.066;2023-04-03T05:37:18;3.50;99.90
56076;DHT22;41951;49.022;12.066;2023-04-03T05:39:44;3.50;99.90
56076;DHT22;41951;49.022;12.066;2023-04-03T05:42:10;3.50;99.90
56076;DHT22;41951;49.022;12.066;2023-04-03T05:44:37;3.50;99.90
56076;DHT22;41951;49.022;12.066;2023-04-03T05:47:03;3.60;99.90
56076;DHT22;41951;49.022;12.066;2023-04-03T05:49:28;3.60;99.90
56076;DHT22;41951;49.022;12.066;2023-04-03T05:51:54;3.60;99.90
56076;DHT22;41951;49.022;12.066;2023-04-03T05:54:26;3.50;99.90
56076;DHT22;41951;49.022;12.066;2023-04-03T05:56:52;3.60;99.90
56076;DHT22;41951;49.022;12.066;2023-04-03T05:59:18;3.70;99.90
56076;DHT22;41951;49.022;12.066;2023-04-03T06:01:44;3.70;99.90
56076;DHT22;41951;49.022;12.066;2023-04-03T06:04:10;3.70;99.90
56076;DHT22;41951;49.022;12.066;2023-04-03T06:06:48;3.70;99.90
56076;DHT22;41951;49.022;12.066;2023-04-03T06:09:15;3.70;99.90
56076;DHT22;41951;49.022;12.066;2023-04-03T06:11:40;3.70;99.90
56076;DHT22;41951;49.022;12.066;2023-04-03T06:14:07;3.70;99.90
56076;DHT22;41951;49.022;12.066;2023-04-03T06:16:33;3.80;99.90
56076;DHT22;41951;49.022;12.066;2023-04-03T06:18:59;3.80;99.90
56076;DHT22;41951;49.022;12.066;2023-04-03T06:21:25;3.80;99.90
56076;DHT22;41951;49.022;12.066;2023-04-03T06:23:50;3.80;99.90
56076;DHT22;41951;49.022;12.066;2023-04-03T06:26:16;3.90;99.90
56076;DHT22;41951;49.022;12.066;2023-04-03T06:28:42;3.80;99.90
56076;DHT22;41951;49.022;12.066;2023-04-03T06:31:08;3.90;99.90
56076;DHT22;41951;49.022;12.066;2023-04-03T06:33:34;3.90;99.90
56076;DHT22;41951;49.022;12.066;2023-04-03T06:36:00;3.90;99.90
56076;DHT22;41951;49.022;12.066;2023-04-03T06:38:28;4.00;99.90
56076;DHT22;41951;49.022;12.066;2023-04-03T06:40:53;3.90;99.90
56076;DHT22;41951;49.022;12.066;2023-04-03T06:43:19;4.00;99.90
56076;DHT22;41951;49.022;12.066;2023-04-03T06:45:46;4.00;99.90
56076;DHT22;41951;49.022;12.066;2023-04-03T06:48:12;4.10;99.90
56076;DHT22;41951;49.022;12.066;2023-04-03T06:50:38;4.00;99.90
56076;DHT22;41951;49.022;12.066;2023-04-03T06:53:04;4.10;99.90
56076;DHT22;41951;49.022;12.066;2023-04-03T06:55:29;4.10;99.90
56076;DHT22;41951;49.022;12.066;2023-04-03T06:57:55;4.10;99.90
56076;DHT22;41951;49.022;12.066;2023-04-03T07:00:21;4.20;99.90
56076;DHT22;41951;49.022;12.066;2023-04-03T07:02:47;4.30;99.90
56076;DHT22;41951;49.022;12.066;2023-04-03T07:05:12;4.20;99.90
56076;DHT22;41951;49.022;12.066;2023-04-03T07:07:38;4.10;99.90
56076;DHT22;41951;49.022;12.066;2023-04-03T07:10:06;4.20;99.90
56076;DHT22;41951;49.022;12.066;2023-04-03T07:12:32;4.30;99.90
56076;DHT22;41951;49.022;12.066;2023-04-03T07:14:57;4.30;99.90
56076;DHT22;41951;49.022;12.066;2023-04-03T07:17:23;4.30;99.90
56076;DHT22;41951;49.022;12.066;2023-04-03T07:19:49;4.30;99.90
56076;DHT22;41951;49.022;12.066;2023-04-03T07:22:14;4.30;99.90
56076;DHT22;41951;49.022;12.066;2023-04-03T07:24:40;4.30;99.90
56076;DHT22;41951;49.022;12.066;2023-04-03T07:27:05;4.40;99.90
56076;DHT22;41951;49.022;12.066;2023-04-03T07:29:33;4.40;99.90
56076;DHT22;41951;49.022;12.066;2023-04-03T07:31:59;4.40;99.90
56076;DHT22;41951;49.022;12.066;2023-04-03T07:34:25;4.40;99.90
56076;DHT22;41951;49.022;12.066;2023-04-03T07:36:50;4.40;99.90
56076;DHT22;41951;49.022;12.066;2023-04-03T07:39:16;4.50;99.90
56076;DHT22;41951;49.022;12.066;2023-04-03T07:41:41;4.40;99.90
56076;DHT22;41951;49.022;12.066;2023-04-03T07:44:07;4.40;99.90
56076;DHT22;41951;49.022;12.066;2023-04-03T07:46:35;4.50;99.90
56076;DHT22;41951;49.022;12.066;2023-04-03T07:49:01;4.60;99.90
56076;DHT22;41951;49.022;12.066;2023-04-03T07:51:26;4.60;99.90
56076;DHT22;41951;49.022;12.066;2023-04-03T07:53:53;4.60;99.90
56076;DHT22;41951;49.022;12.066;2023-04-03T07:56:19;4.60;99.90
56076;DHT22;41951;49.022;12.066;2023-04-03T07:58:46;4.70;99.90
56076;DHT22;41951;49.022;12.066;2023-04-03T08:01:12;4.70;99.90
56076;DHT22;41951;49.022;12.066;2023-04-03T08:03:38;4.80;99.90
56076;DHT22;41951;49.022;12.066;2023-04-03T08:06:06;4.80;99.90
56076;DHT22;41951;49.022;12.066;2023-04-03T08:08:32;4.90;99.90
56076;DHT22;41951;49.022;12.066;2023-04-03T08:10:59;4.90;99.90
56076;DHT22;41951;49.022;12.066;2023-04-03T08:13:25;4.90;99.90
56076;DHT22;41951;49.022;12.066;2023-04-03T08:15:51;5.00;99.90
56076;DHT22;41951;49.022;12.066;2023-04-03T08:18:18;4.90;99.90
56076;DHT22;41951;49.022;12.066;2023-04-03T08:20:46;5.00;99.90
56076;DHT22;41951;49.022;12.066;2023-04-03T08:23:12;5.10;99.90
56076;DHT22;41951;49.022;12.066;2023-04-03T08:25:40;5.10;99.90
56076;DHT22;41951;49.022;12.066;2023-04-03T08:28:06;5.30;99.90
56076;DHT22;41951;49.022;12.066;2023-04-03T08:30:32;5.20;99.90
56076;DHT22;41951;49.022;12.066;2023-04-03T08:33:00;5.30;99.90
56076;DHT22;41951;49.022;12.066;2023-04-03T08:35:26;5.30;99.90
56076;DHT22;41951;49.022;12.066;2023-04-03T08:37:52;5.40;99.90
56076;DHT22;41951;49.022;12.066;2023-04-03T08:40:17;5.50;99.90
56076;DHT22;41951;49.022;12.066;2023-04-03T08:45:37;5.60;99.90
56076;DHT22;41951;49.022;12.066;2023-04-03T08:50:47;5.60;99.90
56076;DHT22;41951;49.022;12.066;2023-04-03T08:53:22;5.80;99.90
56076;DHT22;41951;49.022;12.066;2023-04-03T08:55:50;6.00;99.90
56076;DHT22;41951;49.022;12.066;2023-04-03T08:58:19;6.10;99.90
56076;DHT22;41951;49.022;12.066;2023-04-03T09:00:51;6.10;99.90
56076;DHT22;41951;49.022;12.066;2023-04-03T09:03:21;6.30;99.90
56076;DHT22;41951;49.022;12.066;2023-04-03T09:06:12;6.40;99.90
56076;DHT22;41951;49.022;12.066;2023-04-03T09:11:35;6.30;99.90
56076;DHT22;41951;49.022;12.066;2023-04-03T09:16:56;5.80;99.90
56076;DHT22;41951;49.022;12.066;2023-04-03T09:22:25;5.50;99.90
56076;DHT22;41951;49.022;12.066;2023-04-03T09:25:31;5.40;99.90
56076;DHT22;41951;49.022;12.066;2023-04-03T09:28:00;5.40;99.90
56076;DHT22;41951;49.022;12.066;2023-04-03T09:30:27;5.30;99.90
56076;DHT22;41951;49.022;12.066;2023-04-03T09:32:54;5.40;99.90
56076;DHT22;41951;49.022;12.066;2023-04-03T09:35:28;5.60;99.90
56076;DHT22;41951;49.022;12.066;2023-04-03T09:38:00;5.80;99.90
56076;DHT22;41951;49.022;12.066;2023-04-03T09:45:44;6.30;99.50
56076;DHT22;41951;49.022;12.066;2023-04-03T09:51:08;6.40;96.30
56076;DHT22;41951;49.022;12.066;2023-04-03T09:53:41;6.50;93.00
56076;DHT22;41951;49.022;12.066;2023-04-03T09:59:13;6.60;94.40
56076;DHT22;41951;49.022;12.066;2023-04-03T10:01:37;6.70;94.40
56076;DHT22;41951;49.022;12.066;2023-04-03T10:04:07;6.70;94.10
56076;DHT22;41951;49.022;12.066;2023-04-03T10:06:35;6.90;92.90
56076;DHT22;41951;49.022;12.066;2023-04-03T10:12:12;7.00;93.10
56076;DHT22;41951;49.022;12.066;2023-04-03T10:20:26;7.40;91.80
56076;DHT22;41951;49.022;12.066;2023-04-03T10:28:45;7.50;90.90
56076;DHT22;41951;49.022;12.066;2023-04-03T10:34:03;7.60;89.40
56076;DHT22;41951;49.022;12.066;2023-04-03T10:47:34;7.50;87.90
56076;DHT22;41951;49.022;12.066;2023-04-03T10:56:21;7.50;87.00
56076;DHT22;41951;49.022;12.066;2023-04-03T10:59:07;7.50;85.70
56076;DHT22;41951;49.022;12.066;2023-04-03T11:01:41;7.40;85.20
56076;DHT22;41951;49.022;12.066;2023-04-03T11:04:09;7.40;84.90
56076;DHT22;41951;49.022;12.066;2023-04-03T11:06:57;7.40;84.70
56076;DHT22;41951;49.022;12.066;2023-04-03T11:09:35;7.20;82.70
56076;DHT22;41951;49.022;12.066;2023-04-03T11:12:14;7.40;85.30
56076;DHT22;41951;49.022;12.066;2023-04-03T11:14:42;7.50;84.80
56076;DHT22;41951;49.022;12.066;2023-04-03T11:17:27;7.40;81.20
56076;DHT22;41951;49.022;12.066;2023-04-03T11:20:14;7.40;81.90
56076;DHT22;41951;49.022;12.066;2023-04-03T11:25:31;7.60;80.30
56076;DHT22;41951;49.022;12.066;2023-04-03T11:27:59;7.80;82.30
56076;DHT22;41951;49.022;12.066;2023-04-03T11:30:29;7.90;82.70
56076;DHT22;41951;49.022;12.066;2023-04-03T11:33:29;7.90;83.10
56076;DHT22;41951;49.022;12.066;2023-04-03T11:36:03;7.80;82.40
56076;DHT22;41951;49.022;12.066;2023-04-03T11:38:33;7.60;83.20
56076;DHT22;41951;49.022;12.066;2023-04-03T11:41:03;7.70;83.30
56076;DHT22;41951;49.022;12.066;2023-04-03T11:43:31;7.70;82.00
56076;DHT22;41951;49.022;12.066;2023-04-03T11:53:53;8.20;77.10
56076;DHT22;41951;49.022;12.066;2023-04-03T12:01:50;8.50;79.70
56076;DHT22;41951;49.022;12.066;2023-04-03T12:04:17;8.30;74.60
56076;DHT22;41951;49.022;12.066;2023-04-03T12:12:36;8.40;75.80
56076;DHT22;41951;49.022;12.066;2023-04-03T12:17:49;8.40;75.50
56076;DHT22;41951;49.022;12.066;2023-04-03T12:20:54;8.60;76.10
56076;DHT22;41951;49.022;12.066;2023-04-03T12:23:24;8.60;75.40
56076;DHT22;41951;49.022;12.066;2023-04-03T12:25:51;9.10;76.80
56076;DHT22;41951;49.022;12.066;2023-04-03T12:28:17;9.30;76.60
56076;DHT22;41951;49.022;12.066;2023-04-03T12:30:43;9.40;75.50
56076;DHT22;41951;49.022;12.066;2023-04-03T12:33:29;9.10;71.40
56076;DHT22;41951;49.022;12.066;2023-04-03T12:36:08;8.80;72.00
56076;DHT22;41951;49.022;12.066;2023-04-03T12:39:18;9.10;72.70
56076;DHT22;41951;49.022;12.066;2023-04-03T12:41:41;9.20;73.10
56076;DHT22;41951;49.022;12.066;2023-04-03T12:47:31;9.40;72.70
56076;DHT22;41951;49.022;12.066;2023-04-03T12:49:59;9.50;73.10
56076;DHT22;41951;49.022;12.066;2023-04-03T12:52:41;9.60;73.00
56076;DHT22;41951;49.022;12.066;2023-04-03T12:55:20;9.70;73.90
56076;DHT22;41951;49.022;12.066;2023-04-03T12:57:46;9.40;73.60
56076;DHT22;41951;49.022;12.066;2023-04-03T13:00:20;9.20;72.40
56076;DHT22;41951;49.022;12.066;2023-04-03T13:02:46;8.70;72.50
56076;DHT22;41951;49.022;12.066;2023-04-03T13:05:18;8.80;72.20
56076;DHT22;41951;49.022;12.066;2023-04-03T13:07:49;9.20;73.00
56076;DHT22;41951;49.022;12.066;2023-04-03T13:10:16;9.30;71.40
56076;DHT22;41951;49.022;12.066;2023-04-03T13:12:53;9.10;70.00
56076;DHT22;41951;49.022;12.066;2023-04-03T13:15:29;9.40;71.20
56076;DHT22;41951;49.022;12.066;2023-04-03T13:17:55;9.40;72.50
56076;DHT22;41951;49.022;12.066;2023-04-03T13:25:21;9.50;71.30
56076;DHT22;41951;49.022;12.066;2023-04-03T13:27:47;9.70;71.50
56076;DHT22;41951;49.022;12.066;2023-04-03T13:32:48;10.20;71.00
56076;DHT22;41951;49.022;12.066;2023-04-03T13:35:31;9.90;71.10
56076;DHT22;41951;49.022;12.066;2023-04-03T13:38:00;9.60;70.90
56076;DHT22;41951;49.022;12.066;2023-04-03T13:40:26;9.00;70.40
56076;DHT22;41951;49.022;12.066;2023-04-03T13:43:14;8.80;70.60
56076;DHT22;41951;49.022;12.066;2023-04-03T13:45:54;9.10;70.70
56076;DHT22;41951;49.022;12.066;2023-04-03T13:48:20;9.30;70.70
56076;DHT22;41951;49.022;12.066;2023-04-03T13:53:54;9.90;69.20
56076;DHT22;41951;49.022;12.066;2023-04-03T13:56:31;9.70;69.30
56076;DHT22;41951;49.022;12.066;2023-04-03T14:07:03;10.50;69.30
56076;DHT22;41951;49.022;12.066;2023-04-03T14:09:28;10.10;68.10
56076;DHT22;41951;49.022;12.066;2023-04-03T14:12:06;9.60;68.70
56076;DHT22;41951;49.022;12.066;2023-04-03T14:14:34;8.90;68.00
56076;DHT22;41951;49.022;12.066;2023-04-03T14:17:17;8.70;69.20
56076;DHT22;41951;49.022;12.066;2023-04-03T14:19:44;9.00;69.10
56076;DHT22;41951;49.022;12.066;2023-04-03T14:24:44;9.40;68.40
56076;DHT22;41951;49.022;12.066;2023-04-03T14:27:22;9.40;67.90
56076;DHT22;41951;49.022;12.066;2023-04-03T14:29:49;9.80;69.10
56076;DHT22;41951;49.022;12.066;2023-04-03T14:32:16;9.40;68.40
56076;DHT22;41951;49.022;12.066;2023-04-03T14:34:43;9.10;68.80
56076;DHT22;41951;49.022;12.066;2023-04-03T14:37:16;8.90;69.90
56076;DHT22;41951;49.022;12.066;2023-04-03T14:39:43;8.80;70.10
56076;DHT22;41951;49.022;12.066;2023-04-03T14:42:15;8.40;70.60
56076;DHT22;41951;49.022;12.066;2023-04-03T14:44:41;8.50;70.30
56076;DHT22;41951;49.022;12.066;2023-04-03T14:47:12;9.40;70.40
56076;DHT22;41951;49.022;12.066;2023-04-03T14:49:39;10.10;68.50
56076;DHT22;41951;49.022;12.066;2023-04-03T14:52:04;10.80;69.10
56076;DHT22;41951;49.022;12.066;2023-04-03T14:54:30;11.90;68.40
56076;DHT22;41951;49.022;12.066;2023-04-03T14:56:58;11.30;66.90
56076;DHT22;41951;49.022;12.066;2023-04-03T14:59:24;10.00;67.40
56076;DHT22;41951;49.022;12.066;2023-04-03T15:01:50;9.10;69.00
56076;DHT22;41951;49.022;12.066;2023-04-03T15:04:20;8.80;69.70
56076;DHT22;41951;49.022;12.066;2023-04-03T15:06:46;9.80;71.10
56076;DHT22;41951;49.022;12.066;2023-04-03T15:09:22;13.30;71.40
56076;DHT22;41951;49.022;12.066;2023-04-03T15:11:50;15.90;67.30
56076;DHT22;41951;49.022;12.066;2023-04-03T15:14:15;17.40;63.50
56076;DHT22;41951;49.022;12.066;2023-04-03T15:16:41;17.10;59.50
56076;DHT22;41951;49.022;12.066;2023-04-03T15:19:07;16.80;57.30
56076;DHT22;41951;49.022;12.066;2023-04-03T15:21:32;15.80;57.40
56076;DHT22;41951;49.022;12.066;2023-04-03T15:23:58;14.70;57.10
56076;DHT22;41951;49.022;12.066;2023-04-03T15:26:24;13.90;57.40
56076;DHT22;41951;49.022;12.066;2023-04-03T15:28:50;12.20;57.80
56076;DHT22;41951;49.022;12.066;2023-04-03T15:31:15;10.70;60.20
56076;DHT22;41951;49.022;12.066;2023-04-03T15:33:41;9.90;61.70
56076;DHT22;41951;49.022;12.066;2023-04-03T15:36:07;9.40;62.80
56076;DHT22;41951;49.022;12.066;2023-04-03T15:38:33;8.90;63.50
56076;DHT22;41951;49.022;12.066;2023-04-03T15:40:59;8.40;65.50
56076;DHT22;41951;49.022;12.066;2023-04-03T15:43:24;9.30;66.00
56076;DHT22;41951;49.022;12.066;2023-04-03T15:45:50;12.00;66.70
56076;DHT22;41951;49.022;12.066;2023-04-03T15:48:17;13.90;64.50
56076;DHT22;41951;49.022;12.066;2023-04-03T15:50:42;13.90;56.30
56076;DHT22;41951;49.022;12.066;2023-04-03T15:53:08;13.80;59.00
56076;DHT22;41951;49.022;12.066;2023-04-03T15:55:36;12.70;58.40
56076;DHT22;41951;49.022;12.066;2023-04-03T15:58:02;12.00;60.00
56076;DHT22;41951;49.022;12.066;2023-04-03T16:00:29;11.20;60.20
56076;DHT22;41951;49.022;12.066;2023-04-03T16:03:00;11.00;61.50
56076;DHT22;41951;49.022;12.066;2023-04-03T16:05:29;11.90;61.30
56076;DHT22;41951;49.022;12.066;2023-04-03T16:07:55;13.40;58.90
56076;DHT22;41951;49.022;12.066;2023-04-03T16:10:20;14.00;58.70
56076;DHT22;41951;49.022;12.066;2023-04-03T16:12:46;14.20;57.20
56076;DHT22;41951;49.022;12.066;2023-04-03T16:15:12;11.90;57.20
56076;DHT22;41951;49.022;12.066;2023-04-03T16:17:38;11.30;58.30
56076;DHT22;41951;49.022;12.066;2023-04-03T16:20:07;10.30;62.00
56076;DHT22;41951;49.022;12.066;2023-04-03T16:22:33;9.40;62.40
56076;DHT22;41951;49.022;12.066;2023-04-03T16:24:59;8.70;64.00
56076;DHT22;41951;49.022;12.066;2023-04-03T16:27:24;8.20;64.20
56076;DHT22;41951;49.022;12.066;2023-04-03T16:29:53;7.60;66.60
56076;DHT22;41951;49.022;12.066;2023-04-03T16:32:20;7.20;66.60
56076;DHT22;41951;49.022;12.066;2023-04-03T16:34:45;7.00;68.10
56076;DHT22;41951;49.022;12.066;2023-04-03T16:37:11;6.70;68.40
56076;DHT22;41951;49.022;12.066;2023-04-03T16:39:37;6.40;69.80
56076;DHT22;41951;49.022;12.066;2023-04-03T16:42:02;6.30;68.90
56076;DHT22;41951;49.022;12.066;2023-04-03T16:44:28;6.10;72.10
56076;DHT22;41951;49.022;12.066;2023-04-03T16:46:53;6.00;72.40
56076;DHT22;41951;49.022;12.066;2023-04-03T16:49:19;5.90;73.80
56076;DHT22;41951;49.022;12.066;2023-04-03T16:51:45;5.70;73.90
56076;DHT22;41951;49.022;12.066;2023-04-03T16:54:11;5.80;73.40
56076;DHT22;41951;49.022;12.066;2023-04-03T16:56:38;5.80;74.70
56076;DHT22;41951;49.022;12.066;2023-04-03T16:59:04;5.80;75.00
56076;DHT22;41951;49.022;12.066;2023-04-03T17:01:30;5.60;75.70
56076;DHT22;41951;49.022;12.066;2023-04-03T17:03:55;5.60;77.20
56076;DHT22;41951;49.022;12.066;2023-04-03T17:06:22;5.40;77.30
56076;DHT22;41951;49.022;12.066;2023-04-03T17:08:50;5.30;78.50
56076;DHT22;41951;49.022;12.066;2023-04-03T17:11:17;5.30;79.30
56076;DHT22;41951;49.022;12.066;2023-04-03T17:13:42;5.20;78.50
56076;DHT22;41951;49.022;12.066;2023-04-03T17:16:11;5.20;78.40
56076;DHT22;41951;49.022;12.066;2023-04-03T17:18:38;5.10;78.40
56076;DHT22;41951;49.022;12.066;2023-04-03T17:21:04;5.10;78.40
56076;DHT22;41951;49.022;12.066;2023-04-03T17:23:30;5.10;78.80
56076;DHT22;41951;49.022;12.066;2023-04-03T17:25:56;5.10;79.00
56076;DHT22;41951;49.022;12.066;2023-04-03T17:28:22;5.10;79.10